DW9424 Weather Reports


Display with metric or nautical units.
time (UTC)temp
F
wind
direction
speed
MPH
gust
MPH
rain 1hr
in
rain 24hr
in
rain mn
in
humidity
%
barometer
mb
20190117072003 25 303 6.0 11.0 0.00 0.00 0.00 49 1024.8
20190117065004 26 308 7.0 12.0 0.00 0.00 0.00 51 1024.2
20190117064003 26 310 9.0 15.0 0.00 0.00 0.00 52 1024.1
20190117063003 26 313 9.0 15.0 0.00 0.00 0.00 57 1024.0
20190117062003 27 312 7.0 12.0 0.00 0.00 0.00 60 1023.9
20190117061003 27 311 5.0 13.0 0.00 0.00 0.00 60 1023.9
20190117055003 28 305 6.0 11.0 0.00 0.00 0.00 60 1023.6
20190117054003 28 302 6.0 12.0 0.00 0.00 0.00 60 1023.4
20190117050003 29 307 8.0 14.0 0.00 0.00 0.00 60 1023.2
20190117044003 30 316 5.0 10.0 0.00 0.00 0.00 62 1022.9
20190117043003 31 324 4.0 8.0 0.00 0.00 0.00 62 1022.7
20190117041004 31 309 4.0 9.0 0.00 0.00 0.00 61 1022.6
20190117034004 32 302 6.0 11.0 0.00 0.00 0.00 62 1022.0
20190117033004 32 306 5.0 9.0 0.00 0.00 0.00 64 1021.8
20190117031004 33 309 4.0 10.0 0.00 0.00 0.00 64 1021.6
20190117025004 34 306 5.0 13.0 0.00 0.00 0.00 63 1021.2
20190117022003 34 300 5.0 10.0 0.00 0.00 0.00 65 1020.7
20190117015003 35 282 4.0 8.0 0.00 0.00 0.00 64 1020.0
20190117014003 35 279 3.0 7.0 0.00 0.00 0.00 64 1019.8
20190117013003 35 279 4.0 9.0 0.00 0.00 0.00 63 1019.7
20190117005003 34 280 4.0 8.0 0.00 0.00 0.00 63 1019.2
20190117004003 34 286 4.0 9.0 0.00 0.00 0.00 63 1019.0
20190117003003 34 281 5.0 10.0 0.00 0.00 0.00 63 1019.1
20190117002003 35 280 5.0 9.0 0.00 0.00 0.00 63 1018.9
20190116234003 35 283 5.0 10.0 0.00 0.00 0.00 62 1018.6
20190116233003 35 278 6.0 10.0 0.00 0.00 0.00 62 1018.4
20190116231003 36 274 6.0 11.0 0.00 0.00 0.00 62 1018.1
20190116230003 36 273 6.0 10.0 0.00 0.00 0.00 62 1018.1
20190116225003 36 278 6.0 10.0 0.00 0.00 0.00 62 1017.9
20190116224003 36 268 4.0 9.0 0.00 0.00 0.00 61 1017.7
20190116223003 36 278 4.0 8.0 0.00 0.00 0.00 60 1017.7
20190116221003 36 274 5.0 10.0 0.00 0.00 0.00 60 1017.4
20190116220003 36 279 6.0 13.0 0.00 0.00 0.00 60 1017.3
20190116215004 36 276 7.0 12.0 0.00 0.00 0.00 60 1017.3
20190116213004 36 280 6.0 11.0 0.00 0.00 0.00 60 1017.0
20190116205004 36 282 7.0 12.0 0.00 0.00 0.00 60 1016.7
20190116204004 36 288 8.0 12.0 0.00 0.00 0.00 60 1016.5
20190116203004 36 282 7.0 14.0 0.00 0.00 0.00 61 1016.5
20190116202004 36 284 8.0 14.0 0.00 0.00 0.00 61 1016.3
20190116201004 36 284 8.0 13.0 0.00 0.00 0.00 61 1016.2
20190116200004 36 283 7.0 15.0 0.00 0.00 0.00 62 1016.1
20190116195003 36 276 6.0 12.0 0.00 0.00 0.00 64 1016.1
20190116194004 36 284 7.0 11.0 0.00 0.00 0.00 65 1016.0
20190116193004 35 281 7.0 13.0 0.00 0.00 0.00 66 1016.0
20190116192004 35 275 7.0 10.0 0.00 0.00 0.00 67 1016.1
20190116191004 35 278 6.0 11.0 0.00 0.00 0.00 67 1016.1
20190116190003 35 276 5.0 10.0 0.00 0.00 0.00 67 1016.2
20190116185003 35 270 5.0 11.0 0.00 0.00 0.00 68 1016.1
20190116184003 35 272 5.0 9.0 0.00 0.00 0.00 68 1016.0
20190116180005 34 276 6.0 11.0 0.00 0.00 0.00 69 1016.0
20190116175003 34 273 5.0 12.0 0.00 0.00 0.00 69 1016.0
20190116172003 33 274 7.0 13.0 0.00 0.00 0.00 69 1016.5
20190116170004 33 277 7.0 14.0 0.00 0.00 0.00 69 1016.8
20190116165003 33 279 8.0 13.0 0.00 0.00 0.00 69 1016.9
20190116163003 33 275 6.0 13.0 0.00 0.00 0.00 70 1017.0
20190116161003 32 288 4.0 9.0 0.00 0.00 0.00 72 1017.3
20190116152004 30 274 5.0 9.0 0.00 0.00 0.00 76 1017.7
20190116151004 30 283 4.0 10.0 0.00 0.00 0.00 77 1017.6
20190116143004 29 270 5.0 9.0 0.00 0.00 0.00 79 1017.1
20190116142004 29 276 4.0 8.0 0.00 0.00 0.00 80 1016.8
20190116141004 28 270 4.0 9.0 0.00 0.00 0.00 80 1016.6
20190116140004 28 272 4.0 8.0 0.00 0.00 0.00 80 1016.6
20190116135004 28 265 2.0 5.0 0.00 0.00 0.00 81 1016.5
20190116134004 27 256 2.0 4.0 0.00 0.00 0.00 80 1016.4
20190116133007 27 266 3.0 5.0 0.00 0.00 0.00 80 1016.4
20190116132004 27 260 3.0 6.0 0.00 0.00 0.00 80 1016.4
20190116131004 27 253 4.0 8.0 0.00 0.00 0.00 80 1016.4
20190116130004 27 263 3.0 6.0 0.00 0.00 0.00 80 1016.3
20190116125004 27 259 3.0 8.0 0.00 0.00 0.00 80 1016.2
20190116124004 26 261 3.0 6.0 0.00 0.00 0.00 80 1016.2
20190116123004 26 253 3.0 7.0 0.00 0.00 0.00 81 1016.3
20190116122003 26 253 3.0 6.0 0.00 0.00 0.00 81 1016.2
20190116115003 25 253 3.0 7.0 0.00 0.00 0.00 80 1016.3
20190116114003 25 256 3.0 7.0 0.00 0.00 0.00 80 1016.2
20190116113003 25 246 3.0 7.0 0.00 0.00 0.00 79 1016.1
20190116112003 25 251 2.0 6.0 0.00 0.00 0.00 79 1016.0
20190116110003 25 256 4.0 9.0 0.00 0.00 0.00 78 1016.2
20190116102003 25 259 4.0 8.0 0.00 0.00 0.00 77 1015.7
20190116100003 25 269 3.0 6.0 0.00 0.00 0.00 76 1015.7
20190116095003 26 266 3.0 7.0 0.00 0.00 0.00 75 1015.7
20190116094003 26 265 3.0 6.0 0.00 0.00 0.00 74 1015.7
20190116090003 26 264 4.0 8.0 0.00 0.00 0.00 72 1016.2
20190116084003 26 260 3.0 6.0 0.00 0.00 0.00 72 1016.3
20190116083004 26 256 3.0 7.0 0.00 0.00 0.00 73 1016.3
20190116081004 26 254 2.0 5.0 0.00 0.00 0.00 75 1016.6
20190116080004 26 256 2.0 4.0 0.00 0.00 0.00 76 1016.7
20190116075004 25 255 3.0 4.0 0.00 0.00 0.00 75 1016.7
20190116073004 26 245 1.0 5.0 0.00 0.00 0.00 74 1017.1